Time;durP1;ratioP1;P1;durP2;ratioP2;P2;SDS_P1;SDS_P2;PMS_P1;PMS_P2;Temp;Humidity;BMP_temperature;BMP_pressure;BME280_temperature;BME280_humidity;BME280_pressure;Samples;Min_cycle;Max_cycle;Signal;HPM_P1;HPM_P2
2023/09/03 00:00:28;;;;;;;7.93;5.40;;;17.70;99.90;;;;;;5006281;28;20179;-65
2023/09/03 00:02:54;;;;;;;5.40;4.90;;;17.70;99.90;;;;;;5014782;28;20432;-65
2023/09/03 00:05:20;;;;;;;7.00;5.63;;;17.70;99.90;;;;;;5014792;28;20930;-65
2023/09/03 00:07:45;;;;;;;6.40;5.27;;;17.80;99.90;;;;;;5009440;28;20209;-65
2023/09/03 00:10:11;;;;;;;5.37;4.67;;;17.80;99.90;;;;;;5005791;28;20434;-65
2023/09/03 00:12:37;;;;;;;4.17;3.77;;;17.80;99.90;;;;;;5014700;28;20224;-65
2023/09/03 00:15:03;;;;;;;8.20;5.00;;;17.70;99.90;;;;;;5014551;28;20199;-65
2023/09/03 00:17:28;;;;;;;10.30;5.30;;;17.80;99.90;;;;;;5014417;28;20290;-67
2023/09/03 00:19:54;;;;;;;5.73;4.90;;;17.70;99.90;;;;;;5009463;28;20525;-65
2023/09/03 00:22:19;;;;;;;4.50;4.10;;;17.70;99.90;;;;;;5006265;28;20207;-65
2023/09/03 00:24:45;;;;;;;4.37;4.03;;;17.70;99.90;;;;;;5014598;28;20221;-65
2023/09/03 00:27:10;;;;;;;4.73;4.33;;;17.70;99.90;;;;;;5014385;28;20699;-65
2023/09/03 00:29:36;;;;;;;4.47;4.07;;;17.70;99.90;;;;;;5013633;28;20174;-65
2023/09/03 00:32:02;;;;;;;4.20;3.80;;;17.70;99.90;;;;;;4999522;28;20682;-65
2023/09/03 00:34:28;;;;;;;4.63;4.20;;;17.70;99.90;;;;;;5006185;28;20642;-67
2023/09/03 00:36:53;;;;;;;4.93;4.43;;;17.70;99.90;;;;;;5014222;28;20536;-65
2023/09/03 00:39:19;;;;;;;6.57;4.30;;;17.60;99.90;;;;;;5013586;28;20258;-65
2023/09/03 00:41:45;;;;;;;4.80;4.50;;;17.60;99.90;;;;;;5014148;28;20178;-65
2023/09/03 00:44:11;;;;;;;5.17;4.67;;;17.60;99.90;;;;;;5005897;28;20245;-65
2023/09/03 00:46:37;;;;;;;5.03;4.63;;;17.60;99.90;;;;;;5006048;28;21004;-65
2023/09/03 00:49:02;;;;;;;4.20;3.90;;;17.60;99.90;;;;;;5013625;28;20179;-65
2023/09/03 00:51:28;;;;;;;4.10;3.80;;;17.60;99.90;;;;;;5014024;28;20280;-68
2023/09/03 00:53:56;;;;;;;6.30;4.23;;;17.50;99.90;;;;;;5013853;28;20618;-65
2023/09/03 00:56:21;;;;;;;4.00;3.60;;;17.50;99.90;;;;;;5004915;28;20187;-65
2023/09/03 00:58:47;;;;;;;5.70;3.63;;;17.50;99.90;;;;;;5007954;28;20975;-65
2023/09/03 01:01:14;;;;;;;5.43;4.07;;;17.50;99.90;;;;;;5013748;28;20675;-65
2023/09/03 01:03:42;;;;;;;4.80;4.30;;;17.50;99.90;;;;;;5014009;28;20258;-65
2023/09/03 01:06:08;;;;;;;5.50;4.13;;;17.40;99.90;;;;;;5013671;28;20418;-65
2023/09/03 01:08:35;;;;;;;4.90;4.50;;;17.40;99.90;;;;;;5004760;28;20454;-65
2023/09/03 01:11:17;;;;;;;5.30;4.37;;;17.30;99.90;;;;;;5010133;28;20178;-65
2023/09/03 01:14:01;;;;;;;5.93;3.93;;;17.30;99.90;;;;;;5013398;28;20422;-65
2023/09/03 01:16:41;;;;;;;5.30;4.27;;;17.30;99.90;;;;;;5013605;28;20481;-65
2023/09/03 01:19:44;;;;;;;3.90;3.70;;;17.30;99.90;;;;;;5007243;28;20454;-65
2023/09/03 01:22:36;;;;;;;4.40;3.73;;;17.30;99.90;;;;;;4986600;28;20434;-65
2023/09/03 01:25:32;;;;;;;3.97;3.67;;;17.30;99.90;;;;;;5013296;28;20521;-65
2023/09/03 01:28:20;;;;;;;4.43;4.00;;;17.30;99.90;;;;;;5013235;28;20820;-65
2023/09/03 01:30:47;;;;;;;4.00;3.70;;;17.30;99.90;;;;;;5008855;28;20454;-65
2023/09/03 01:33:13;;;;;;;4.20;3.87;;;17.30;99.90;;;;;;5003111;28;20513;-65
2023/09/03 01:35:40;;;;;;;4.83;4.43;;;17.30;99.90;;;;;;5013105;28;20536;-65
2023/09/03 01:38:06;;;;;;;4.67;4.27;;;17.30;99.90;;;;;;5012883;28;20434;-65
2023/09/03 01:40:32;;;;;;;6.00;4.60;;;17.30;99.90;;;;;;5012403;28;20426;-65
2023/09/03 01:42:57;;;;;;;5.00;4.50;;;17.30;99.90;;;;;;5007044;28;20649;-65
2023/09/03 01:45:31;;;;;;;4.27;4.00;;;17.30;99.90;;;;;;5004533;28;20425;-65
2023/09/03 01:48:26;;;;;;;5.73;5.23;;;17.30;99.90;;;;;;5012764;28;20668;-65
2023/09/03 01:51:03;;;;;;;4.67;4.27;;;17.30;99.90;;;;;;5012541;28;20438;-65
2023/09/03 01:53:43;;;;;;;7.07;4.13;;;17.40;99.90;;;;;;5012868;28;20882;-65
2023/09/03 01:56:13;;;;;;;5.50;5.10;;;17.30;99.90;;;;;;5006510;28;20437;-65
2023/09/03 01:58:42;;;;;;;4.90;4.50;;;17.30;99.90;;;;;;5005268;28;20509;-65
2023/09/03 02:01:08;;;;;;;5.13;4.20;;;17.30;99.90;;;;;;5012657;28;20429;-65
2023/09/03 02:03:34;;;;;;;4.17;3.77;;;17.40;99.90;;;;;;5012652;28;20422;-65
2023/09/03 02:06:00;;;;;;;5.83;4.57;;;17.30;99.90;;;;;;5012554;28;20958;-65
2023/09/03 02:08:25;;;;;;;5.17;4.73;;;17.20;99.90;;;;;;5004107;28;20491;-65
2023/09/03 02:10:51;;;;;;;5.13;4.60;;;17.20;99.90;;;;;;5007966;28;20175;-65
2023/09/03 02:13:16;;;;;;;4.50;4.20;;;17.20;99.90;;;;;;5012572;28;20662;-65
2023/09/03 02:15:42;;;;;;;4.97;4.50;;;17.20;99.90;;;;;;5012535;28;20206;-65
2023/09/03 02:18:08;;;;;;;4.07;3.67;;;17.10;99.90;;;;;;5012136;28;20230;-65
2023/09/03 02:20:34;;;;;;;5.43;4.70;;;17.20;99.90;;;;;;5003161;28;20691;-65
2023/09/03 02:22:59;;;;;;;4.87;4.40;;;17.10;99.90;;;;;;5008855;28;20504;-65
2023/09/03 02:25:25;;;;;;;4.30;4.00;;;17.00;99.90;;;;;;5012391;28;20621;-65
2023/09/03 02:27:50;;;;;;;5.07;4.57;;;17.10;99.90;;;;;;5012277;28;20631;-65
2023/09/03 02:30:16;;;;;;;4.77;4.40;;;17.00;99.90;;;;;;5011724;28;20174;-65
2023/09/03 02:32:42;;;;;;;6.00;5.40;;;17.00;99.90;;;;;;5000106;28;20611;-65
2023/09/03 02:35:07;;;;;;;5.50;5.00;;;16.90;99.90;;;;;;5009664;28;20277;-65
2023/09/03 02:37:33;;;;;;;7.07;5.17;;;16.90;99.90;;;;;;5012199;28;20187;-65
2023/09/03 02:39:59;;;;;;;5.00;4.60;;;16.80;99.90;;;;;;5011513;28;20206;-65
2023/09/03 02:42:25;;;;;;;4.77;4.37;;;16.80;99.90;;;;;;5010941;28;20178;-65
2023/09/03 02:44:50;;;;;;;5.20;4.70;;;16.90;99.90;;;;;;5000287;28;20672;-65
2023/09/03 02:47:16;;;;;;;5.00;4.60;;;16.80;99.90;;;;;;5010736;28;20450;-65
2023/09/03 02:49:41;;;;;;;4.17;3.87;;;16.80;99.90;;;;;;5011358;28;20272;-65
2023/09/03 02:52:07;;;;;;;5.70;5.20;;;16.80;99.90;;;;;;5012219;28;20642;-65
2023/09/03 02:54:32;;;;;;;4.97;4.40;;;16.80;99.90;;;;;;5010788;28;20211;-65
2023/09/03 02:56:58;;;;;;;5.30;4.80;;;16.80;99.90;;;;;;5000224;28;20292;-65
2023/09/03 02:59:23;;;;;;;4.27;3.97;;;16.80;99.90;;;;;;5010961;28;20182;-65
2023/09/03 03:01:49;;;;;;;7.33;5.87;;;16.70;99.90;;;;;;5012043;28;20222;-65
2023/09/03 03:04:14;;;;;;;4.37;4.07;;;16.70;99.90;;;;;;5011976;28;20183;-65
2023/09/03 03:06:40;;;;;;;5.70;4.30;;;16.70;99.90;;;;;;5008370;28;20204;-65
2023/09/03 03:09:05;;;;;;;5.37;4.83;;;16.70;99.90;;;;;;5000403;28;20676;-65
2023/09/03 03:11:31;;;;;;;5.50;5.00;;;16.70;99.90;;;;;;5007626;28;20237;-65
2023/09/03 03:13:56;;;;;;;5.33;4.73;;;16.70;99.90;;;;;;5015883;28;20203;-65
2023/09/03 03:16:23;;;;;;;5.43;4.93;;;16.70;99.90;;;;;;5015713;28;20174;-65
2023/09/03 03:18:50;;;;;;;5.20;4.57;;;16.70;99.90;;;;;;5009722;28;20191;-65
2023/09/03 03:21:22;;;;;;;5.00;4.60;;;16.70;99.90;;;;;;5006023;28;20855;-65
2023/09/03 03:23:49;;;;;;;4.83;4.27;;;16.70;99.90;;;;;;5015702;28;20418;-65
2023/09/03 03:26:15;;;;;;;6.10;4.77;;;16.70;99.90;;;;;;5015572;28;20426;-65
2023/09/03 03:28:41;;;;;;;5.73;4.60;;;16.70;99.90;;;;;;5014716;28;20860;-65
2023/09/03 03:31:16;;;;;;;4.60;4.20;;;16.70;99.90;;;;;;5007871;28;20430;-65
2023/09/03 03:33:43;;;;;;;4.83;4.43;;;16.60;99.90;;;;;;5007151;28;20254;-65
2023/09/03 03:36:12;;;;;;;5.30;4.77;;;16.60;99.90;;;;;;5015637;28;20793;-65
2023/09/03 03:38:37;;;;;;;6.17;5.20;;;16.70;99.90;;;;;;5014589;28;20970;-65
2023/09/03 03:41:19;;;;;;;5.10;4.70;;;16.70;99.90;;;;;;5015239;28;20420;-65
2023/09/03 03:43:47;;;;;;;4.90;4.50;;;16.60;99.90;;;;;;5005864;28;20183;-65
2023/09/03 03:46:15;;;;;;;6.60;4.80;;;16.60;99.90;;;;;;5007224;28;20418;-65
2023/09/03 03:48:41;;;;;;;5.10;4.60;;;16.60;99.90;;;;;;5014475;28;20515;-65
2023/09/03 03:51:06;;;;;;;5.73;5.23;;;16.60;99.90;;;;;;5015274;28;20460;-65
2023/09/03 03:53:32;;;;;;;6.73;6.10;;;16.60;99.90;;;;;;5015130;28;20883;-65
2023/09/03 03:56:05;;;;;;;7.80;7.10;;;16.60;99.90;;;;;;5005726;28;20215;-65
2023/09/03 03:58:33;;;;;;;5.80;4.53;;;16.50;99.90;;;;;;4999396;28;20580;-65
2023/09/03 04:00:59;;;;;;;5.80;5.20;;;16.40;99.90;;;;;;5014977;28;20492;-65
2023/09/03 04:03:28;;;;;;;7.27;5.63;;;16.40;99.90;;;;;;5015073;28;20817;-65
2023/09/03 04:06:01;;;;;;;4.80;4.40;;;16.40;99.90;;;;;;5014858;28;20182;-65
2023/09/03 04:08:30;;;;;;;5.97;5.37;;;16.40;99.90;;;;;;5003091;28;20464;-65
2023/09/03 04:11:00;;;;;;;13.67;9.97;;;16.40;99.90;;;;;;5010536;28;20488;-65
2023/09/03 04:13:26;;;;;;;8.60;5.87;;;16.40;99.90;;;;;;5014774;28;20418;-65
2023/09/03 04:15:53;;;;;;;5.77;5.20;;;16.40;99.90;;;;;;5014630;28;20570;-65
2023/09/03 04:18:19;;;;;;;5.10;4.70;;;16.40;99.90;;;;;;5013878;28;21144;-65
2023/09/03 04:20:44;;;;;;;5.17;4.67;;;16.50;99.90;;;;;;4992289;28;20443;-65
2023/09/03 04:23:09;;;;;;;5.70;5.20;;;16.50;99.90;;;;;;5003811;28;20675;-65
2023/09/03 04:25:35;;;;;;;5.37;4.97;;;16.50;99.90;;;;;;5014403;28;20180;-65
2023/09/03 04:28:00;;;;;;;5.40;4.90;;;16.50;99.90;;;;;;5014489;28;20210;-65
2023/09/03 04:30:26;;;;;;;5.50;5.00;;;16.40;99.90;;;;;;5012512;28;20175;-65
2023/09/03 04:32:51;;;;;;;5.67;5.17;;;16.40;99.90;;;;;;4994017;28;20191;-65
2023/09/03 04:35:17;;;;;;;5.00;4.50;;;16.40;99.90;;;;;;5004645;28;20199;-65
2023/09/03 04:37:43;;;;;;;6.00;4.73;;;16.30;99.90;;;;;;5014220;28;20195;-65
2023/09/03 04:40:09;;;;;;;5.70;4.83;;;16.30;99.90;;;;;;5013458;28;20163;-65
2023/09/03 04:42:34;;;;;;;9.33;5.67;;;16.20;99.90;;;;;;5009691;28;20956;-65
2023/09/03 04:45:00;;;;;;;7.07;5.20;;;16.20;99.90;;;;;;5002653;28;20433;-65
2023/09/03 04:47:25;;;;;;;6.10;5.27;;;16.20;99.90;;;;;;5013745;28;20605;-65
2023/09/03 04:49:51;;;;;;;4.70;4.20;;;16.20;99.90;;;;;;5013360;28;20179;-65
2023/09/03 04:52:16;;;;;;;8.03;5.10;;;16.20;99.90;;;;;;5014050;28;20282;-65
2023/09/03 04:54:43;;;;;;;4.90;4.60;;;16.30;99.90;;;;;;5009348;28;20244;-67
2023/09/03 04:57:09;;;;;;;6.13;4.87;;;16.30;99.90;;;;;;5003393;28;20263;-65
2023/09/03 04:59:34;;;;;;;6.30;4.53;;;16.30;99.90;;;;;;5013064;28;20505;-65
2023/09/03 05:02:00;;;;;;;6.70;6.00;;;16.30;99.90;;;;;;5013761;28;20273;-65
2023/09/03 05:04:25;;;;;;;7.03;5.67;;;16.30;99.90;;;;;;5013754;28;20179;-65
2023/09/03 05:06:51;;;;;;;5.97;5.10;;;16.30;99.90;;;;;;5007963;28;20218;-65
2023/09/03 05:09:16;;;;;;;6.73;5.10;;;16.40;99.90;;;;;;5003216;28;20207;-65
2023/09/03 05:11:42;;;;;;;5.63;5.13;;;16.50;99.90;;;;;;5013829;28;20183;-65
2023/09/03 05:14:08;;;;;;;5.63;5.07;;;16.50;99.90;;;;;;5013638;28;20195;-65
2023/09/03 05:16:34;;;;;;;5.37;4.80;;;16.60;99.90;;;;;;5013967;28;20919;-65
2023/09/03 05:19:04;;;;;;;5.43;5.00;;;16.70;99.90;;;;;;5007883;28;20191;-65
2023/09/03 05:21:31;;;;;;;5.30;4.60;;;16.70;99.90;;;;;;5001911;28;20179;-65
2023/09/03 05:23:57;;;;;;;5.87;5.27;;;16.80;99.90;;;;;;4993668;28;20426;-65
2023/09/03 05:26:23;;;;;;;6.17;5.60;;;16.80;99.90;;;;;;4993667;28;20904;-65
2023/09/03 05:28:48;;;;;;;5.00;4.50;;;16.90;99.90;;;;;;4992983;28;20211;-65
2023/09/03 05:31:14;;;;;;;5.03;4.30;;;16.90;99.90;;;;;;4994079;28;20596;-65
2023/09/03 05:33:39;;;;;;;5.43;4.90;;;17.00;99.90;;;;;;5004036;28;20176;-65
2023/09/03 05:36:05;;;;;;;4.83;4.40;;;16.90;99.90;;;;;;5000599;28;20211;-65
2023/09/03 05:38:31;;;;;;;4.97;4.60;;;17.00;99.90;;;;;;5012327;28;21072;-65
2023/09/03 05:40:59;;;;;;;4.80;4.50;;;17.10;99.90;;;;;;5013233;28;20424;-65
2023/09/03 05:43:25;;;;;;;4.97;4.57;;;17.20;99.90;;;;;;5008787;28;20688;-65
2023/09/03 05:45:51;;;;;;;5.60;5.10;;;17.20;99.90;;;;;;4999231;28;20451;-65
2023/09/03 05:48:16;;;;;;;6.03;5.10;;;17.20;99.90;;;;;;5000650;28;20442;-65
2023/09/03 05:50:42;;;;;;;9.80;6.80;;;17.30;99.90;;;;;;4993281;28;20168;-65
2023/09/03 05:53:07;;;;;;;5.43;4.93;;;17.30;99.90;;;;;;4993214;28;20528;-65
2023/09/03 05:55:37;;;;;;;8.33;5.93;;;17.40;99.90;;;;;;4996250;28;20198;-65
2023/09/03 05:58:03;;;;;;;7.10;5.33;;;17.40;99.90;;;;;;5004492;28;20191;-65
2023/09/03 06:00:28;;;;;;;5.00;4.60;;;17.60;99.90;;;;;;5012188;28;20568;-65
2023/09/03 06:02:54;;;;;;;4.67;4.30;;;17.80;99.90;;;;;;5012718;28;20213;-65
2023/09/03 06:05:20;;;;;;;5.20;4.70;;;17.90;99.90;;;;;;5012731;28;20175;-65
2023/09/03 06:07:45;;;;;;;6.40;4.50;;;18.00;99.90;;;;;;5007546;28;20199;-65
2023/09/03 06:10:11;;;;;;;5.50;4.93;;;18.00;99.90;;;;;;5003756;28;20184;-65
2023/09/03 06:12:36;;;;;;;5.80;5.40;;;18.00;99.90;;;;;;5005011;28;20182;-65
2023/09/03 06:15:02;;;;;;;5.33;4.73;;;18.10;99.90;;;;;;5004401;28;20602;-65
2023/09/03 06:17:27;;;;;;;5.00;4.57;;;18.20;99.90;;;;;;5008119;28;20203;-67
2023/09/03 06:19:53;;;;;;;7.60;6.33;;;18.30;99.90;;;;;;5003637;28;20175;-65
2023/09/03 06:22:19;;;;;;;5.63;4.57;;;18.50;99.90;;;;;;5012347;28;20167;-65
2023/09/03 06:24:44;;;;;;;6.10;5.27;;;18.60;99.90;;;;;;5012413;28;20413;-65
2023/09/03 06:27:10;;;;;;;6.13;5.70;;;18.70;99.90;;;;;;5012436;28;20202;-65
2023/09/03 06:29:36;;;;;;;6.27;5.50;;;18.90;99.90;;;;;;5006022;28;20187;-65
2023/09/03 06:32:01;;;;;;;7.60;6.53;;;19.10;99.90;;;;;;5004111;28;20254;-65
2023/09/03 06:34:27;;;;;;;8.80;8.00;;;19.20;99.90;;;;;;5012237;28;20256;-65
2023/09/03 06:36:52;;;;;;;8.50;5.23;;;19.40;99.90;;;;;;5012176;28;20186;-65
2023/09/03 06:39:18;;;;;;;5.70;5.07;;;19.50;99.90;;;;;;5011574;28;20175;-65
2023/09/03 06:41:43;;;;;;;5.83;5.40;;;19.60;99.90;;;;;;5008583;28;20198;-65
2023/09/03 06:44:09;;;;;;;6.57;5.67;;;19.80;99.90;;;;;;5003190;28;20171;-65
2023/09/03 06:46:34;;;;;;;6.50;6.00;;;19.90;99.90;;;;;;5012164;28;20261;-65
2023/09/03 06:49:00;;;;;;;10.60;7.63;;;20.10;99.90;;;;;;5011402;28;20262;-65
2023/09/03 06:51:25;;;;;;;8.80;7.90;;;20.20;99.90;;;;;;5012079;28;20629;-65
2023/09/03 06:53:51;;;;;;;7.43;6.73;;;20.30;99.90;;;;;;5003386;28;20179;-65
2023/09/03 06:56:16;;;;;;;5.10;4.60;;;20.30;99.90;;;;;;5000640;28;20183;-65
2023/09/03 06:58:42;;;;;;;6.60;6.00;;;20.50;99.90;;;;;;4991762;28;20188;-65
2023/09/03 07:01:08;;;;;;;7.43;5.23;;;20.60;99.90;;;;;;4992366;28;20226;-65
2023/09/03 07:03:33;;;;;;;5.70;5.20;;;20.70;99.90;;;;;;4992450;28;20192;-65
2023/09/03 07:05:59;;;;;;;6.03;5.13;;;20.70;99.90;;;;;;4998934;28;20194;-65
2023/09/03 07:08:24;;;;;;;6.10;5.60;;;20.80;99.90;;;;;;5003011;28;20261;-65
2023/09/03 07:10:50;;;;;;;6.20;5.43;;;21.00;99.90;;;;;;5011875;28;20593;-65
2023/09/03 07:13:15;;;;;;;5.80;5.30;;;21.20;99.90;;;;;;5011934;28;20699;-65
2023/09/03 07:15:41;;;;;;;7.27;5.60;;;21.30;99.90;;;;;;5011827;28;20703;-65
2023/09/03 07:18:07;;;;;;;6.63;6.03;;;21.40;99.90;;;;;;5005620;28;20682;-65
2023/09/03 07:20:32;;;;;;;6.37;5.73;;;21.40;99.90;;;;;;5003718;28;20202;-65
2023/09/03 07:22:58;;;;;;;5.83;5.43;;;21.50;99.90;;;;;;5012016;28;20171;-65
2023/09/03 07:25:24;;;;;;;5.60;5.10;;;21.50;99.90;;;;;;5011783;28;20182;-65
2023/09/03 07:27:50;;;;;;;7.30;6.00;;;21.60;99.90;;;;;;5011804;28;20186;-65
2023/09/03 07:30:16;;;;;;;6.93;6.07;;;21.80;99.90;;;;;;5001068;28;20464;-65
2023/09/03 07:32:41;;;;;;;6.57;6.03;;;21.90;99.90;;;;;;5005528;28;20645;-65
2023/09/03 07:35:07;;;;;;;9.43;5.67;;;22.00;99.90;;;;;;5011686;28;20201;-65
2023/09/03 07:37:33;;;;;;;5.83;5.33;;;22.10;99.90;;;;;;5011989;28;20297;-65
2023/09/03 07:39:59;;;;;;;9.53;8.00;;;22.10;99.90;;;;;;5004639;28;20492;-65
2023/09/03 07:42:24;;;;;;;6.20;5.60;;;22.20;99.90;;;;;;5003492;28;20232;-65
2023/09/03 07:44:50;;;;;;;6.40;5.80;;;22.30;99.90;;;;;;5011844;28;20243;-65
2023/09/03 07:47:15;;;;;;;7.33;6.73;;;22.40;99.90;;;;;;5011673;28;20720;-65
2023/09/03 07:49:42;;;;;;;6.80;6.20;;;22.60;99.90;;;;;;5010937;28;20171;-65
2023/09/03 07:52:08;;;;;;;7.70;6.23;;;22.60;99.90;;;;;;5000766;28;20187;-65
2023/09/03 07:54:33;;;;;;;5.80;5.23;;;22.80;99.90;;;;;;5004502;28;20452;-65
2023/09/03 07:56:59;;;;;;;10.40;6.60;;;22.90;99.90;;;;;;5015119;28;20202;-65
2023/09/03 07:59:24;;;;;;;6.77;6.17;;;23.10;99.90;;;;;;5014476;28;20555;-65
2023/09/03 08:01:50;;;;;;;6.50;4.50;;;23.40;99.90;;;;;;5015032;28;20202;-65
2023/09/03 08:04:15;;;;;;;5.97;5.40;;;23.50;99.90;;;;;;5005366;28;20182;-65
2023/09/03 08:06:41;;;;;;;6.10;5.60;;;23.60;99.90;;;;;;5008638;28;20218;-65
2023/09/03 08:09:06;;;;;;;5.47;5.07;;;23.80;99.90;;;;;;5014231;28;20664;-65
2023/09/03 08:11:32;;;;;;;5.23;4.73;;;24.00;99.90;;;;;;5005064;28;20259;-65
2023/09/03 08:13:59;;;;;;;5.63;5.20;;;24.20;99.90;;;;;;5010808;28;20714;-65
2023/09/03 08:16:25;;;;;;;6.13;5.50;;;24.40;99.90;;;;;;5003701;28;20187;-65
2023/09/03 08:18:51;;;;;;;5.17;4.67;;;24.60;99.90;;;;;;5008877;28;20443;-65
2023/09/03 08:21:16;;;;;;;7.33;4.63;;;25.10;99.90;;;;;;5014716;28;20179;-65
2023/09/03 08:23:42;;;;;;;6.90;5.83;;;25.40;99.90;;;;;;5014640;28;20171;-66
2023/09/03 08:26:08;;;;;;;4.93;4.57;;;25.70;99.90;;;;;;5007203;28;20176;-65
2023/09/03 08:28:33;;;;;;;6.37;4.50;;;25.70;99.90;;;;;;5005674;28;20203;-66
2023/09/03 08:30:59;;;;;;;5.73;5.33;;;25.60;99.90;;;;;;5014502;28;20426;-66
2023/09/03 08:33:24;;;;;;;6.17;5.67;;;25.80;99.90;;;;;;5014332;28;20175;-66
2023/09/03 08:35:50;;;;;;;5.73;5.13;;;25.90;99.90;;;;;;5009122;28;20844;-65
2023/09/03 08:38:16;;;;;;;4.83;4.20;;;26.10;99.90;;;;;;5003022;28;20206;-65
2023/09/03 08:40:43;;;;;;;4.60;4.20;;;26.40;99.90;;;;;;5014278;28;20537;-66
2023/09/03 08:43:10;;;;;;;6.63;4.37;;;26.50;99.90;;;;;;5014345;28;20190;-66
2023/09/03 08:45:41;;;;;;;5.80;4.50;;;26.80;99.90;;;;;;5006541;28;20459;-66
2023/09/03 08:48:06;;;;;;;4.73;4.23;;;27.30;99.90;;;;;;5005669;28;20520;-66
2023/09/03 08:50:33;;;;;;;5.07;4.67;;;27.70;99.90;;;;;;5013777;28;20422;-66
2023/09/03 08:53:00;;;;;;;4.80;4.30;;;27.80;99.90;;;;;;5014130;28;20175;-66
2023/09/03 08:55:29;;;;;;;5.23;4.73;;;28.10;99.90;;;;;;5007216;28;20885;-66
2023/09/03 08:57:54;;;;;;;4.73;4.33;;;28.20;99.90;;;;;;5005647;28;20506;-66
2023/09/03 09:00:20;;;;;;;4.17;3.80;;;28.40;99.90;;;;;;5013237;28;20476;-66
2023/09/03 09:02:47;;;;;;;4.23;3.83;;;28.60;99.90;;;;;;5014068;28;20171;-66
2023/09/03 09:05:15;;;;;;;3.73;3.43;;;28.70;99.90;;;;;;5014068;28;20847;-66
2023/09/03 09:07:41;;;;;;;3.77;3.47;;;29.10;99.90;;;;;;5008749;28;20536;-66
2023/09/03 09:10:10;;;;;;;4.37;3.97;;;29.30;99.90;;;;;;5004828;28;20449;-66
2023/09/03 09:12:47;;;;;;;5.63;3.50;;;29.40;99.90;;;;;;5013766;28;20422;-66
2023/09/03 09:15:13;;;;;;;5.70;3.50;;;29.40;99.90;;;;;;5013848;28;20473;-66
2023/09/03 09:17:40;;;;;;;4.30;3.90;;;29.50;99.90;;;;;;5013376;28;20472;-66
2023/09/03 09:20:07;;;;;;;4.00;3.70;;;29.60;99.90;;;;;;5008136;28;20179;-66
2023/09/03 09:22:42;;;;;;;6.77;3.40;;;29.80;99.90;;;;;;5006159;28;20428;-66
2023/09/03 09:25:10;;;;;;;3.80;3.30;;;30.40;99.90;;;;;;5013410;28;20480;-66
2023/09/03 09:27:37;;;;;;;3.87;3.47;;;30.90;99.90;;;;;;5013325;28;20445;-66
2023/09/03 09:30:14;;;;;;;2.93;2.73;;;31.30;98.40;;;;;;5012886;28;20426;-66
2023/09/03 09:32:42;;;;;;;3.47;3.17;;;31.10;96.70;;;;;;5004115;28;20442;-66
2023/09/03 09:35:08;;;;;;;3.53;2.83;;;31.50;95.40;;;;;;5010507;28;20454;-66
2023/09/03 09:37:39;;;;;;;3.97;3.47;;;31.60;94.20;;;;;;5013225;28;20520;-66
2023/09/03 09:40:07;;;;;;;3.30;3.10;;;31.90;93.50;;;;;;5012543;28;20528;-66
2023/09/03 09:42:33;;;;;;;3.13;2.93;;;31.70;92.70;;;;;;5013213;28;20422;-66
2023/09/03 09:44:59;;;;;;;3.60;3.30;;;31.80;93.10;;;;;;5001024;28;20442;-66
2023/09/03 09:47:26;;;;;;;3.93;3.57;;;31.90;92.20;;;;;;5012492;28;20453;-66
2023/09/03 09:49:52;;;;;;;3.53;3.20;;;31.90;91.60;;;;;;5012639;28;20549;-66
2023/09/03 09:52:18;;;;;;;3.50;3.30;;;32.20;90.50;;;;;;5012981;28;20426;-66
2023/09/03 09:54:45;;;;;;;3.50;3.30;;;32.40;88.50;;;;;;5009195;28;20187;-66
2023/09/03 09:57:15;;;;;;;3.30;3.00;;;32.50;88.00;;;;;;5002253;28;20991;-66
2023/09/03 09:59:50;;;;;;;2.83;2.63;;;33.10;85.70;;;;;;5012223;28;20470;-66
2023/09/03 10:02:16;;;;;;;3.10;2.90;;;33.20;85.00;;;;;;5012789;28;20428;-66
2023/09/03 10:04:43;;;;;;;2.73;2.57;;;33.30;84.00;;;;;;5012963;28;20485;-66
2023/09/03 10:07:10;;;;;;;2.90;2.70;;;33.90;80.90;;;;;;5007751;28;20461;-66
2023/09/03 10:09:37;;;;;;;2.40;2.20;;;33.60;78.00;;;;;;5003822;28;20797;-66
2023/09/03 10:12:07;;;;;;;4.23;3.23;;;33.50;79.50;;;;;;5012883;28;20437;-66
2023/09/03 10:14:34;;;;;;;2.83;2.67;;;33.50;78.70;;;;;;5012669;28;20966;-66
2023/09/03 10:17:09;;;;;;;2.43;2.20;;;34.00;77.40;;;;;;5012417;28;20458;-66
2023/09/03 10:19:50;;;;;;;3.17;2.43;;;34.30;75.10;;;;;;5007786;28;20433;-66
2023/09/03 10:22:19;;;;;;;2.60;2.40;;;34.70;72.00;;;;;;4999633;28;20431;-66
2023/09/03 10:24:50;;;;;;;2.30;2.20;;;35.10;70.60;;;;;;5004242;28;20426;-66
2023/09/03 10:27:19;;;;;;;2.90;2.70;;;34.60;69.80;;;;;;5011233;28;20449;-66
2023/09/03 10:29:47;;;;;;;3.17;3.00;;;34.90;68.90;;;;;;5011836;28;20518;-66
2023/09/03 10:32:15;;;;;;;3.00;2.80;;;35.40;67.10;;;;;;4998809;28;21018;-66
2023/09/03 10:34:41;;;;;;;3.70;3.40;;;35.80;67.00;;;;;;5004238;28;20524;-66
2023/09/03 10:37:12;;;;;;;3.40;3.10;;;35.70;64.60;;;;;;5012274;28;20962;-66
2023/09/03 10:39:40;;;;;;;2.80;2.60;;;35.70;64.10;;;;;;5011592;28;20277;-66
2023/09/03 10:42:14;;;;;;;2.37;2.20;;;35.70;63.40;;;;;;5012316;28;20453;-66
2023/09/03 10:44:51;;;;;;;3.57;3.27;;;36.10;62.20;;;;;;4999602;28;20442;-66
2023/09/03 10:47:19;;;;;;;2.60;2.50;;;37.20;59.20;;;;;;5002444;28;20857;-66
2023/09/03 10:49:46;;;;;;;5.67;2.20;;;37.10;57.20;;;;;;5011703;28;20513;-67
2023/09/03 10:52:27;;;;;;;3.03;2.73;;;37.40;56.60;;;;;;5012237;28;20429;-67
2023/09/03 10:55:14;;;;;;;2.10;2.00;;;37.70;54.80;;;;;;5008677;28;20481;-67
2023/09/03 10:57:40;;;;;;;1.90;1.80;;;38.20;53.60;;;;;;4994076;28;20496;-66
2023/09/03 11:00:15;;;;;;;2.30;2.20;;;37.30;53.50;;;;;;4991798;28;20999;-66
2023/09/03 11:02:41;;;;;;;2.10;1.93;;;37.00;54.40;;;;;;4992518;28;20939;-66
2023/09/03 11:05:21;;;;;;;1.80;1.70;;;37.10;53.90;;;;;;4992515;28;20411;-66
2023/09/03 11:08:07;;;;;;;4.80;2.10;;;37.20;53.20;;;;;;4994456;28;20544;-66
2023/09/03 11:10:35;;;;;;;2.33;2.20;;;37.90;51.90;;;;;;4996218;28;20500;-67
2023/09/03 11:13:04;;;;;;;2.00;1.87;;;38.00;51.60;;;;;;5007106;28;20425;-67
2023/09/03 11:15:29;;;;;;;2.23;2.03;;;37.70;51.60;;;;;;5005972;28;20557;-66
2023/09/03 11:17:56;;;;;;;1.80;1.70;;;37.40;51.60;;;;;;5005013;28;20907;-67
2023/09/03 11:20:31;;;;;;;1.97;1.87;;;37.50;51.70;;;;;;5003091;28;20182;-67
2023/09/03 11:23:02;;;;;;;3.00;2.80;;;37.40;50.90;;;;;;5012116;28;20422;-67
2023/09/03 11:25:38;;;;;;;2.03;1.93;;;37.40;51.40;;;;;;5006772;28;20960;-67
2023/09/03 11:28:07;;;;;;;3.93;2.10;;;37.50;50.40;;;;;;5000305;28;20810;-67
2023/09/03 11:30:33;;;;;;;2.27;2.17;;;36.90;50.90;;;;;;5012921;28;20504;-67
2023/09/03 11:32:59;;;;;;;2.40;2.30;;;37.10;51.00;;;;;;5015789;28;20981;-66
2023/09/03 11:35:25;;;;;;;2.13;1.90;;;37.70;50.40;;;;;;5015528;28;20225;-67
2023/09/03 11:37:52;;;;;;;2.20;1.90;;;38.60;49.20;;;;;;5004655;28;20204;-67
2023/09/03 11:40:18;;;;;;;2.20;2.03;;;38.80;49.00;;;;;;5005166;28;20510;-67
2023/09/03 11:42:44;;;;;;;2.10;2.00;;;38.80;48.50;;;;;;5015436;28;20496;-67
2023/09/03 11:45:11;;;;;;;2.37;1.87;;;39.10;47.50;;;;;;5015319;28;20171;-66
2023/09/03 11:47:50;;;;;;;2.13;2.03;;;39.50;46.60;;;;;;5015449;28;20478;-66
2023/09/03 11:50:17;;;;;;;2.00;1.90;;;38.20;46.80;;;;;;5009395;28;20472;-67
2023/09/03 11:52:53;;;;;;;2.63;2.13;;;37.00;48.60;;;;;;5008989;28;20518;-66
2023/09/03 11:55:20;;;;;;;1.80;1.70;;;36.90;48.90;;;;;;5015119;28;20449;-66
2023/09/03 11:57:47;;;;;;;2.47;2.27;;;37.10;48.40;;;;;;5015423;28;20437;-67
2023/09/03 12:00:15;;;;;;;3.00;1.90;;;37.60;48.50;;;;;;5014443;28;20842;-67
2023/09/03 12:02:41;;;;;;;1.90;1.80;;;37.00;48.40;;;;;;5005995;28;20437;-66
2023/09/03 12:05:07;;;;;;;2.20;2.10;;;37.20;48.40;;;;;;5006927;28;20448;-67
2023/09/03 12:07:33;;;;;;;2.73;1.90;;;36.90;49.40;;;;;;5014997;28;20491;-67
2023/09/03 12:09:59;;;;;;;2.10;1.90;;;36.60;49.60;;;;;;5014113;28;21104;-66
2023/09/03 12:12:24;;;;;;;2.40;2.20;;;36.00;50.50;;;;;;5015070;28;20179;-66
2023/09/03 12:14:50;;;;;;;1.93;1.83;;;35.20;51.20;;;;;;5007544;28;20215;-66
2023/09/03 12:17:36;;;;;;;2.10;2.00;;;34.00;52.60;;;;;;5006435;28;20183;-66
2023/09/03 12:20:03;;;;;;;2.10;2.00;;;33.10;53.70;;;;;;5013822;28;20194;-66
2023/09/03 12:22:29;;;;;;;2.10;2.00;;;33.10;54.10;;;;;;5014658;28;20421;-66
2023/09/03 12:25:03;;;;;;;2.53;2.33;;;33.50;54.20;;;;;;5014832;28;20457;-67
2023/09/03 12:27:28;;;;;;;2.20;2.10;;;33.40;54.60;;;;;;4999205;28;20458;-66
2023/09/03 12:29:55;;;;;;;2.17;1.97;;;33.70;54.70;;;;;;4999359;28;20505;-66
2023/09/03 12:32:32;;;;;;;2.30;2.20;;;34.70;53.90;;;;;;5005375;28;20179;-66
2023/09/03 12:34:58;;;;;;;2.47;2.00;;;36.30;51.60;;;;;;5014323;28;20457;-66
2023/09/03 12:37:23;;;;;;;2.20;2.00;;;37.30;50.00;;;;;;5010333;28;20454;-66
2023/09/03 12:39:49;;;;;;;4.00;1.93;;;37.40;49.70;;;;;;5002110;28;20176;-66
2023/09/03 12:42:14;;;;;;;2.07;1.97;;;38.00;48.90;;;;;;5012310;28;20222;-66
2023/09/03 12:44:43;;;;;;;2.17;2.07;;;37.90;48.10;;;;;;5014455;28;20171;-66
2023/09/03 12:47:09;;;;;;;1.97;1.87;;;38.40;47.60;;;;;;5014196;28;20278;-66